MAPA DE AEROPUERTO

INFORMACIÓN METAR y TAF

METAR FOR LEJR
ADDS - METARS form results

(1111 UTC 05 August 2021)
Data provider http://aviationweather.gov/metar/data/
 
METAR text: LEJR 051100Z VRB03KT CAVOK 32/18 Q1016
Conditions at: LEJR (JEREZ (CIV/MIL) , ES) observed 1100 UTC 05 August 2021
Temperature: 32.0°C (90°F)
Dewpoint: 18.0°C (64°F) [RH = 43%]
Pressure (altimeter): 30.00 inches Hg (1016.0 mb)
Winds: variable direction winds at 3 MPH (3 knots; 1.5 m/s)
Visibility: 6 or more miles (10+ km)
Ceiling: ceiling and visibility are OK
Clouds: unknown
Weather: no significant weather observed at this time

METAR text: LEJR 051030Z VRB03KT CAVOK 31/18 Q1016
Conditions at: LEJR (JEREZ (CIV/MIL) , ES) observed 1030 UTC 05 August 2021
Temperature: 31.0°C (88°F)
Dewpoint: 18.0°C (64°F) [RH = 46%]
Pressure (altimeter): 30.00 inches Hg (1016.0 mb)
Winds: variable direction winds at 3 MPH (3 knots; 1.5 m/s)
Visibility: 6 or more miles (10+ km)
Ceiling: ceiling and visibility are OK
Clouds: unknown
Weather: no significant weather observed at this time

Forecast for: LEJR (JEREZ (CIV/MIL) , ES)
Text: TAF LEJR 050800Z 0509/0609 34004KT CAVOK TX35/0514Z TN17/0605Z
Forecast period: 0900 to 1200 UTC 05 August 2021
Forecast type: FROM: standard forecast or significant change
Winds: from the NNW (340 degrees) at 5 MPH (4 knots; 2.1 m/s)
Visibility: 6 or more miles (10+ km)
Ceiling: unknown
Clouds: missing
Weather: no significant weather forecast for this period
Text: BECMG 0512/0514 25010KT
Forecast period: 1200 to 1900 UTC 05 August 2021
Forecast type: BECOMING: Conditions expected to become as follows by 1400 UTC 05 August 2021
Winds: from the WSW (250 degrees) at 12 MPH (10 knots; 5.1 m/s)
Visibility: 6 or more miles (10+ km)
Ceiling: unknown
Clouds: missing
Weather: no significant weather forecast for this period
Text: BECMG 0519/0521 19005KT
Forecast period: 1900 UTC 05 August 2021 to 0900 UTC 06 August 2021
Forecast type: BECOMING: Conditions expected to become as follows by 2100 UTC 05 August 2021
Winds: from the S (190 degrees) at 6 MPH (5 knots; 2.6 m/s)
Visibility: 6 or more miles (10+ km)
Ceiling: unknown
Clouds: missing
Weather: no significant weather forecast for this period